Chattanooga, TN

12:50 AM EDT on October 01, 2014 (GMT -0400)
Lazard St | Change Station
CLOSE
Current Station
Personal Weather Station
Location: East Ridge, TN
Elevation: 722 ft
Nearby Weather Stations

Elev 722 ft 34.99 °N, 85.24 °W | Updated 3 seconds ago

Mostly Cloudy
Mostly Cloudy
61.8 °F
Feels Like 61.8 °F
N
0.0
Wind Variable Wind from NNE
Gusts 0.0 mph

Today
High -- | Low -- °F
--% Chance of Precip.
Yesterday
High -- | Low -- °F
Precip. -- in
7:36 AM 7:25 PM
Waxing Crescent, 43% visible
Pressure 29.93 in
Visibility 10.0 miles
Clouds Mostly Cloudy 25000 ft
Dew Point 61 °F
Humidity 96%
Rainfall 0.00 in
Snow Depth Not available.
UV 0 out of 12
Pollen 5.00 out of 12
Ozone Good
PM2.5 Moderate
Flu Activity Not available.
METAR KCHA 010353Z 00000KT 10SM BKN250 19/17 A2995 RMK AO2 SLP135 LAST T01940167

More Conditions Fewer Conditions

Pressure 29.93 in
Visibility 10.0 miles
Clouds Mostly Cloudy 25000 ft
Dew Point 61 °F
Humidity 96%
Rainfall 0.00 in
Snow Depth Not available.
UV 0 out of 12
Pollen 5.00 out of 12
Ozone Good
PM2.5 Moderate
Flu Activity Not available.
METAR KCHA 010353Z 00000KT 10SM BKN250 19/17 A2995 RMK AO2 SLP135 LAST T01940167

More Conditions Fewer Conditions

10-Day Weather Forecast

Almanac

Astronomy

Oct. 01, 2014 Rise Set
Actual Time 7:36 AM EDT 7:25 PM EDT
Civil Twilight 7:10 AM EDT 7:50 PM EDT
Nautical Twilight 6:41 AM EDT 8:19 PM EDT
Astronomical Twilight 6:11 AM EDT 8:49 PM EDT
Moon 2:26 PM EDT 12:06 AM EDT
Length of Visible Light 12h 39m
Length of Day
11h 49m
Tomorrow will be 2m 10s shorter.
Waxing Crescent, 43% of the Moon is Illuminated
Today
Waxing Crescent
Oct 1
First Quarter
Oct 8
Full
Oct 15
Last Quarter
Oct 23
New

Today's Extremes

State Highs State Lows

Community

WunderPhotos

Upload Photos

1,757,847 photos uploaded!

Nearby

Air Quality

  Air Quality AQ Index Pollutant
Yesterday Good
PM2.5
Yesterday Good
OZONE
Current Moderate
PM2.5
Current Good
OZONE
Tuesday Good
PM2.5
Tuesday Good
OZONE
Wednesday Moderate
PM2.5
Wednesday Good
OZONE
Thursday Moderate
PM2.5
Thursday Good
OZONE

Snow Depth

Station Depth Elevation
No new snow has been reported.

Earthquake Activity

City Distance Mag. Time & Date
No recent earthquake activity has been reported nearby.
Minimum magnitude displayed is 2.5.

Coastal Water Temperatures

Place Temperature
No Stations Reporting

Nearby Weather Stations